createdAt,value
2022-09-24T00:02:27.573Z,3.33
2022-09-24T00:04:58.040Z,3.15
2022-09-24T00:07:26.442Z,3.15
2022-09-24T00:09:54.747Z,2.53
2022-09-24T00:12:23.140Z,3.58
2022-09-24T00:14:51.470Z,3.28
2022-09-24T00:17:19.791Z,2.63
2022-09-24T00:19:48.106Z,2.85
2022-09-24T00:22:17.847Z,2.83
2022-09-24T00:25:12.199Z,3.30
2022-09-24T00:27:40.818Z,3.63
2022-09-24T00:30:10.713Z,3.30
2022-09-24T00:32:39.123Z,3.75
2022-09-24T00:35:08.655Z,2.65
2022-09-24T00:37:38.897Z,2.83
2022-09-24T00:40:09.589Z,2.70
2022-09-24T00:42:37.970Z,3.83
2022-09-24T00:45:07.714Z,3.17
2022-09-24T00:47:39.788Z,3.40
2022-09-24T00:50:17.687Z,4.25
2022-09-24T00:52:54.374Z,2.90
2022-09-24T00:55:24.963Z,3.40
2022-09-24T00:57:58.227Z,3.75
2022-09-24T01:00:27.711Z,2.65
2022-09-24T01:03:02.380Z,2.92
2022-09-24T01:05:31.210Z,3.00
2022-09-24T01:08:00.952Z,3.65
2022-09-24T01:10:49.034Z,3.05
2022-09-24T01:13:34.778Z,2.67
2022-09-24T01:16:11.233Z,3.05
2022-09-24T01:18:48.297Z,3.88
2022-09-24T01:21:34.660Z,3.75
2022-09-24T01:24:47.454Z,3.10
2022-09-24T01:27:21.216Z,3.70
2022-09-24T01:30:03.624Z,2.63
2022-09-24T01:32:38.334Z,2.53
2022-09-24T01:35:16.099Z,3.47
2022-09-24T01:37:52.801Z,2.97
2022-09-24T01:40:24.363Z,2.95
2022-09-24T01:42:55.404Z,2.08
2022-09-24T01:45:26.899Z,2.60
2022-09-24T01:47:55.239Z,2.33
2022-09-24T01:50:25.778Z,2.33
2022-09-24T01:53:01.413Z,2.30
2022-09-24T01:55:38.298Z,2.10
2022-09-24T01:58:11.534Z,2.55
2022-09-24T02:00:47.018Z,2.42
2022-09-24T02:03:20.356Z,2.47
2022-09-24T02:05:55.519Z,2.25
2022-09-24T02:08:27.536Z,3.03
2022-09-24T02:11:02.405Z,2.78
2022-09-24T02:13:40.305Z,2.42
2022-09-24T02:16:16.331Z,3.33
2022-09-24T02:18:49.022Z,2.92
2022-09-24T02:21:21.466Z,2.83
2022-09-24T02:23:57.349Z,3.13
2022-09-24T02:26:25.847Z,3.10
2022-09-24T02:28:54.618Z,3.05
2022-09-24T02:31:30.338Z,2.88
2022-09-24T02:34:20.409Z,3.08
2022-09-24T02:36:50.322Z,3.45
2022-09-24T02:39:18.774Z,3.20
2022-09-24T02:41:49.291Z,2.97
2022-09-24T02:44:18.618Z,3.30
2022-09-24T02:46:50.489Z,2.72
2022-09-24T02:49:19.534Z,2.78
2022-09-24T02:51:48.267Z,3.22
2022-09-24T02:54:16.960Z,3.47
2022-09-24T02:56:45.529Z,2.83
2022-09-24T02:59:13.881Z,2.58
2022-09-24T03:01:42.383Z,2.97
2022-09-24T03:04:12.343Z,3.45
2022-09-24T03:06:40.684Z,3.53
2022-09-24T03:09:09.015Z,3.60
2022-09-24T03:11:37.291Z,2.55
2022-09-24T03:14:05.654Z,2.83
2022-09-24T03:16:34.731Z,3.72
2022-09-24T03:19:03.133Z,3.15
2022-09-24T03:21:32.940Z,2.85
2022-09-24T03:24:01.422Z,2.80
2022-09-24T03:26:29.837Z,3.10
2022-09-24T03:28:58.175Z,2.90
2022-09-24T03:31:25.577Z,3.20
2022-09-24T03:33:54.582Z,3.10
2022-09-24T03:36:25.967Z,3.83
2022-09-24T03:38:57.889Z,2.67
2022-09-24T03:41:28.468Z,2.60
2022-09-24T03:43:57.230Z,3.20
2022-09-24T03:46:30.478Z,3.63
2022-09-24T03:49:00.521Z,2.70
2022-09-24T03:51:28.968Z,3.67
2022-09-24T03:53:58.668Z,2.78
2022-09-24T03:56:27.228Z,3.47
2022-09-24T03:58:56.230Z,2.20
2022-09-24T04:01:24.592Z,2.28
2022-09-24T04:03:54.321Z,2.83
2022-09-24T04:06:25.913Z,2.88
2022-09-24T04:08:55.638Z,2.97
2022-09-24T04:11:25.898Z,3.33
2022-09-24T04:13:54.502Z,3.15
2022-09-24T04:16:23.036Z,3.47
2022-09-24T04:18:51.360Z,3.20
2022-09-24T04:21:19.726Z,2.58
2022-09-24T04:23:48.516Z,3.25
2022-09-24T04:26:17.232Z,3.22
2022-09-24T04:28:46.945Z,3.17
2022-09-24T04:31:15.366Z,2.83
2022-09-24T04:33:43.744Z,3.90
2022-09-24T04:36:12.057Z,3.03
2022-09-24T04:38:40.388Z,3.22
2022-09-24T04:41:10.176Z,3.58
2022-09-24T04:43:38.491Z,3.65
2022-09-24T04:46:09.345Z,2.67
2022-09-24T04:48:38.304Z,3.22
2022-09-24T04:51:08.622Z,2.67
2022-09-24T04:53:38.414Z,2.58
2022-09-24T04:56:12.199Z,3.85
2022-09-24T04:58:40.907Z,2.90
2022-09-24T05:01:13.679Z,3.65
2022-09-24T05:03:42.059Z,4.15
2022-09-24T05:06:10.392Z,3.40
2022-09-24T05:08:38.779Z,3.22
2022-09-24T05:11:07.473Z,2.67
2022-09-24T05:13:36.142Z,3.08
2022-09-24T05:16:04.565Z,2.30
2022-09-24T05:18:34.282Z,4.13
2022-09-24T05:21:02.629Z,2.72
2022-09-24T05:23:30.995Z,4.93
2022-09-24T05:26:16.537Z,3.20
2022-09-24T05:28:44.935Z,3.17
2022-09-24T05:31:13.956Z,3.60
2022-09-24T05:33:43.802Z,3.75
2022-09-24T05:36:12.111Z,3.67
2022-09-24T05:38:41.870Z,3.97
2022-09-24T05:41:10.839Z,3.85
2022-09-24T05:43:39.165Z,3.05
2022-09-24T05:46:08.176Z,3.85
2022-09-24T05:48:36.626Z,3.47
2022-09-24T05:51:07.041Z,3.33
2022-09-24T05:53:35.816Z,2.97
2022-09-24T05:56:04.138Z,3.17
2022-09-24T05:58:32.798Z,3.58
2022-09-24T06:01:02.046Z,2.92
2022-09-24T06:03:31.907Z,3.45
2022-09-24T06:06:02.215Z,3.92
2022-09-24T06:08:33.653Z,3.85
2022-09-24T06:11:02.582Z,3.65
2022-09-24T06:13:31.684Z,3.33
2022-09-24T06:16:03.102Z,2.88
2022-09-24T06:18:31.655Z,4.00
2022-09-24T06:21:03.945Z,3.90
2022-09-24T06:23:33.821Z,3.65
2022-09-24T06:26:02.558Z,4.00
2022-09-24T06:28:30.915Z,3.58
2022-09-24T06:31:01.791Z,2.72
2022-09-24T06:33:30.713Z,3.33
2022-09-24T06:36:01.941Z,4.13
2022-09-24T06:38:31.539Z,4.38
2022-09-24T06:41:03.723Z,4.22
2022-09-24T06:43:33.469Z,5.05
2022-09-24T06:46:03.694Z,5.03
2022-09-24T06:48:32.872Z,3.45
2022-09-24T06:51:01.213Z,4.05
2022-09-24T06:53:29.534Z,3.72
2022-09-24T06:55:59.887Z,3.65
2022-09-24T06:58:30.019Z,4.53
2022-09-24T07:01:02.509Z,3.88
2022-09-24T07:03:33.584Z,5.15
2022-09-24T07:06:04.022Z,4.03
2022-09-24T07:08:32.996Z,4.85
2022-09-24T07:11:02.280Z,4.10
2022-09-24T07:13:32.789Z,4.22
2022-09-24T07:16:01.606Z,4.25
2022-09-24T07:18:30.091Z,4.28
2022-09-24T07:20:58.473Z,3.55
2022-09-24T07:23:27.924Z,4.22
2022-09-24T07:25:58.038Z,3.78
2022-09-24T07:28:27.013Z,4.30
2022-09-24T07:31:01.186Z,4.75
2022-09-24T07:33:31.988Z,4.47
2022-09-24T07:36:00.306Z,5.30
2022-09-24T07:38:28.634Z,4.15
2022-09-24T07:40:59.499Z,4.28
2022-09-24T07:43:28.217Z,3.92
2022-09-24T07:45:58.227Z,3.58
2022-09-24T07:48:28.090Z,4.32
2022-09-24T07:50:56.508Z,5.30
2022-09-24T07:53:24.940Z,4.13
2022-09-24T07:55:53.657Z,3.38
2022-09-24T07:58:21.985Z,4.47
2022-09-24T08:00:50.367Z,4.32
2022-09-24T08:03:18.808Z,5.10
2022-09-24T08:05:48.645Z,4.28
2022-09-24T08:08:17.138Z,3.85
2022-09-24T08:10:45.491Z,3.85
2022-09-24T08:13:13.931Z,4.25
2022-09-24T08:15:42.723Z,4.10
2022-09-24T08:18:11.566Z,6.13
2022-09-24T08:20:40.359Z,4.70
2022-09-24T08:23:11.474Z,4.80
2022-09-24T08:25:39.847Z,3.80
2022-09-24T08:28:10.739Z,4.70
2022-09-24T08:30:39.969Z,4.38
2022-09-24T08:33:08.307Z,4.05
2022-09-24T08:35:38.404Z,3.83
2022-09-24T08:38:07.154Z,4.85
2022-09-24T08:40:44.056Z,5.45
2022-09-24T08:43:31.017Z,4.65
2022-09-24T08:46:21.171Z,4.82
2022-09-24T08:48:53.687Z,5.80
2022-09-24T08:51:24.494Z,5.20
2022-09-24T08:54:01.515Z,5.32
2022-09-24T08:56:36.621Z,5.03
2022-09-24T08:59:17.701Z,6.30
2022-09-24T09:01:52.489Z,4.75
2022-09-24T09:04:32.052Z,6.72
2022-09-24T09:07:15.612Z,4.80
2022-09-24T09:09:50.281Z,5.65
2022-09-24T09:12:26.995Z,6.00
2022-09-24T09:15:05.399Z,6.07
2022-09-24T09:17:45.818Z,6.18
2022-09-24T09:20:21.123Z,6.45
2022-09-24T09:22:53.430Z,6.05
2022-09-24T09:25:25.586Z,5.47
2022-09-24T09:28:02.223Z,5.68
2022-09-24T09:30:43.745Z,5.88
2022-09-24T09:33:28.379Z,5.97
2022-09-24T09:36:05.892Z,5.55
2022-09-24T09:38:44.684Z,5.22
2022-09-24T09:41:24.134Z,5.70
2022-09-24T09:44:01.253Z,4.63
2022-09-24T09:46:38.909Z,6.07
2022-09-24T09:49:09.201Z,5.28
2022-09-24T09:51:43.039Z,5.90
2022-09-24T09:54:11.607Z,5.95
2022-09-24T09:56:45.852Z,5.32
2022-09-24T09:59:28.830Z,5.53
2022-09-24T10:01:58.275Z,5.28
2022-09-24T10:04:39.963Z,4.72
2022-09-24T10:07:11.516Z,5.38
2022-09-24T10:09:43.222Z,4.53
2022-09-24T10:12:21.296Z,4.78
2022-09-24T10:15:02.344Z,4.45
2022-09-24T10:17:37.281Z,4.85
2022-09-24T10:20:16.608Z,4.10
2022-09-24T10:22:51.091Z,3.50
2022-09-24T10:25:24.714Z,5.13
2022-09-24T10:27:55.624Z,3.75
2022-09-24T10:30:36.342Z,5.63
2022-09-24T10:33:08.915Z,6.03
2022-09-24T10:35:39.168Z,4.20
2022-09-24T10:38:19.979Z,4.75
2022-09-24T10:40:50.175Z,3.88
2022-09-24T10:43:21.466Z,4.50
2022-09-24T10:46:14.418Z,3.60
2022-09-24T10:48:50.927Z,3.17
2022-09-24T10:51:37.101Z,4.93
2022-09-24T10:54:33.570Z,4.88
2022-09-24T10:57:13.369Z,3.85
2022-09-24T11:00:02.364Z,4.00
2022-09-24T11:03:12.936Z,4.60
2022-09-24T11:05:50.170Z,5.03
2022-09-24T11:08:32.500Z,4.47
2022-09-24T11:11:18.399Z,4.40
2022-09-24T11:13:59.359Z,3.72
2022-09-24T11:16:47.562Z,4.35
2022-09-24T11:19:39.319Z,3.78
2022-09-24T11:22:15.636Z,4.20
2022-09-24T11:25:12.376Z,4.60
2022-09-24T11:27:57.405Z,4.32
2022-09-24T11:30:32.644Z,3.80
2022-09-24T11:33:26.342Z,4.72
2022-09-24T11:36:34.958Z,5.10
2022-09-24T11:39:39.249Z,4.35
2022-09-24T11:42:23.088Z,5.32
2022-09-24T11:45:30.090Z,3.85
2022-09-24T11:48:42.142Z,4.10
2022-09-24T11:51:30.263Z,3.72
2022-09-24T11:54:04.936Z,4.15
2022-09-24T11:56:39.808Z,4.00
2022-09-24T11:59:18.351Z,3.25
2022-09-24T12:01:52.948Z,4.05
2022-09-24T12:04:29.062Z,5.47
2022-09-24T12:07:04.083Z,4.10
2022-09-24T12:09:38.690Z,6.10
2022-09-24T12:12:12.864Z,4.18
2022-09-24T12:14:50.885Z,4.38
2022-09-24T12:17:33.210Z,4.22
2022-09-24T12:20:06.694Z,3.63
2022-09-24T12:22:39.906Z,4.43
2022-09-24T12:25:13.999Z,4.38
2022-09-24T12:27:43.097Z,4.32
2022-09-24T12:30:47.606Z,5.68
2022-09-24T12:33:28.265Z,3.38
2022-09-24T12:36:07.089Z,4.07
2022-09-24T12:38:42.833Z,3.88
2022-09-24T12:41:32.865Z,4.55
2022-09-24T12:44:08.400Z,3.92
2022-09-24T12:46:42.727Z,4.32
2022-09-24T12:49:29.874Z,3.67
2022-09-24T12:52:00.692Z,3.80
2022-09-24T12:54:34.022Z,5.70
2022-09-24T12:57:11.367Z,4.72
2022-09-24T12:59:51.943Z,4.07
2022-09-24T13:02:24.447Z,4.32
2022-09-24T13:05:18.347Z,3.53
2022-09-24T13:08:01.961Z,3.72
2022-09-24T13:10:34.687Z,3.88
2022-09-24T13:13:16.558Z,4.35
2022-09-24T13:15:45.663Z,4.40
2022-09-24T13:18:24.303Z,3.47
2022-09-24T13:21:05.818Z,3.97
2022-09-24T13:23:46.018Z,3.58
2022-09-24T13:26:34.794Z,3.10
2022-09-24T13:29:05.790Z,3.30
2022-09-24T13:31:47.782Z,4.95
2022-09-24T13:34:21.722Z,3.63
2022-09-24T13:36:58.902Z,3.53
2022-09-24T13:39:36.581Z,3.50
2022-09-24T13:42:18.757Z,3.30
2022-09-24T13:44:52.432Z,3.10
2022-09-24T13:47:36.274Z,3.78
2022-09-24T13:50:15.361Z,3.40
2022-09-24T13:52:48.359Z,4.03
2022-09-24T13:55:22.830Z,3.78
2022-09-24T13:57:52.671Z,3.20
2022-09-24T14:00:24.508Z,3.35
2022-09-24T14:03:02.189Z,3.50
2022-09-24T14:05:35.197Z,2.30
2022-09-24T14:08:08.693Z,2.63
2022-09-24T14:10:37.515Z,2.30
2022-09-24T14:13:23.838Z,2.30
2022-09-24T14:15:58.079Z,2.13
2022-09-24T14:18:28.338Z,2.83
2022-09-24T14:21:04.222Z,2.60
2022-09-24T14:23:38.383Z,2.25
2022-09-24T14:26:07.646Z,2.70
2022-09-24T14:28:37.374Z,2.25
2022-09-24T14:31:10.401Z,2.78
2022-09-24T14:33:40.589Z,2.40
2022-09-24T14:36:13.827Z,2.25
2022-09-24T14:38:54.262Z,2.90
2022-09-24T14:41:26.987Z,2.80
2022-09-24T14:44:00.263Z,3.40
2022-09-24T14:46:33.671Z,2.88
2022-09-24T14:49:20.372Z,3.15
2022-09-24T14:51:58.158Z,2.08
2022-09-24T14:54:33.797Z,2.88
2022-09-24T14:57:13.367Z,3.13
2022-09-24T14:59:43.058Z,2.55
2022-09-24T15:02:21.124Z,4.43
2022-09-24T15:04:53.278Z,5.05
2022-09-24T15:07:25.588Z,2.25
2022-09-24T15:09:57.023Z,3.38
2022-09-24T15:12:31.227Z,4.70
2022-09-24T15:15:03.259Z,3.78
2022-09-24T15:17:33.475Z,2.28
2022-09-24T15:20:02.613Z,2.70
2022-09-24T15:22:32.267Z,2.55
2022-09-24T15:25:02.314Z,2.67
2022-09-24T15:27:33.020Z,2.83
2022-09-24T15:30:05.690Z,1.88
2022-09-24T15:32:36.708Z,3.03
2022-09-24T15:35:09.480Z,2.35
2022-09-24T15:37:40.480Z,2.78
2022-09-24T15:40:20.672Z,2.08
2022-09-24T15:42:49.421Z,2.05
2022-09-24T15:45:22.422Z,2.13
2022-09-24T15:47:51.653Z,3.80
2022-09-24T15:50:21.578Z,3.00
2022-09-24T15:52:53.386Z,2.63
2022-09-24T15:55:24.051Z,3.75
2022-09-24T15:57:53.223Z,2.38
2022-09-24T16:00:27.307Z,3.25
2022-09-24T16:02:58.322Z,2.63
2022-09-24T16:05:27.098Z,2.50
2022-09-24T16:07:55.521Z,2.38
2022-09-24T16:10:23.996Z,2.15
2022-09-24T16:12:52.435Z,2.42
2022-09-24T16:15:22.374Z,2.75
2022-09-24T16:17:51.023Z,3.03
2022-09-24T16:20:19.793Z,3.20
2022-09-24T16:22:48.211Z,2.25
2022-09-24T16:25:16.873Z,2.72
2022-09-24T16:27:45.418Z,2.03
2022-09-24T16:30:14.211Z,2.28
2022-09-24T16:32:44.142Z,2.75
2022-09-24T16:35:13.360Z,2.72
2022-09-24T16:37:42.251Z,2.33
2022-09-24T16:40:12.305Z,2.53
2022-09-24T16:42:40.801Z,2.70
2022-09-24T16:45:12.583Z,2.95
2022-09-24T16:47:40.976Z,3.75
2022-09-24T16:50:11.612Z,3.45
2022-09-24T16:52:40.263Z,3.65
2022-09-24T16:55:10.261Z,2.72
2022-09-24T16:57:39.367Z,2.83
2022-09-24T17:00:10.805Z,3.33
2022-09-24T17:02:39.289Z,3.13
2022-09-24T17:05:11.009Z,3.00
2022-09-24T17:07:39.404Z,2.95
2022-09-24T17:10:16.196Z,3.40
2022-09-24T17:12:47.195Z,3.13
2022-09-24T17:15:19.383Z,3.53
2022-09-24T17:17:50.186Z,3.63
2022-09-24T17:20:21.450Z,3.47
2022-09-24T17:22:50.300Z,4.78
2022-09-24T17:25:18.800Z,5.05
2022-09-24T17:27:47.222Z,6.13
2022-09-24T17:30:16.545Z,4.35
2022-09-24T17:32:45.011Z,6.80
2022-09-24T17:35:14.829Z,6.40
2022-09-24T17:37:45.266Z,5.35
2022-09-24T17:40:19.873Z,4.70
2022-09-24T17:42:51.784Z,5.07
2022-09-24T17:45:21.504Z,4.55
2022-09-24T17:47:58.643Z,4.45
2022-09-24T17:50:27.010Z,3.75
2022-09-24T17:52:56.776Z,3.28
2022-09-24T17:55:25.305Z,3.83
2022-09-24T17:57:53.711Z,3.40
2022-09-24T18:00:22.187Z,3.75
2022-09-24T18:02:50.640Z,2.40
2022-09-24T18:05:19.114Z,3.10
2022-09-24T18:07:47.540Z,2.95
2022-09-24T18:10:18.606Z,3.55
2022-09-24T18:12:47.159Z,2.83
2022-09-24T18:15:15.872Z,2.92
2022-09-24T18:17:44.325Z,2.47
2022-09-24T18:20:12.836Z,4.25
2022-09-24T18:22:41.262Z,3.95
2022-09-24T18:25:11.741Z,4.03
2022-09-24T18:27:41.526Z,6.07
2022-09-24T18:30:11.833Z,3.53
2022-09-24T18:32:40.480Z,3.67
2022-09-24T18:35:11.092Z,3.63
2022-09-24T18:37:40.114Z,3.75
2022-09-24T18:40:12.314Z,3.78
2022-09-24T18:42:42.110Z,3.83
2022-09-24T18:45:11.598Z,3.40
2022-09-24T18:47:39.999Z,3.13
2022-09-24T18:50:10.196Z,4.30
2022-09-24T18:52:38.607Z,4.85
2022-09-24T18:55:08.978Z,3.67
2022-09-24T18:57:37.885Z,4.15
2022-09-24T19:00:30.743Z,3.28
2022-09-24T19:02:59.881Z,4.68
2022-09-24T19:05:29.826Z,4.80
2022-09-24T19:07:59.176Z,4.85
2022-09-24T19:10:27.757Z,5.47
2022-09-24T19:12:56.880Z,4.93
2022-09-24T19:15:26.724Z,5.03
2022-09-24T19:17:55.183Z,6.03
2022-09-24T19:20:23.609Z,5.78
2022-09-24T19:22:59.948Z,5.85
2022-09-24T19:25:29.163Z,6.82
2022-09-24T19:27:57.961Z,6.38
2022-09-24T19:30:27.961Z,7.43
2022-09-24T19:32:56.318Z,5.40
2022-09-24T19:35:24.781Z,4.63
2022-09-24T19:37:53.348Z,6.20
2022-09-24T19:40:21.829Z,5.22
2022-09-24T19:42:50.329Z,5.82
2022-09-24T19:45:18.737Z,6.40
2022-09-24T19:47:50.272Z,5.85
2022-09-24T19:50:18.970Z,5.95
2022-09-24T19:52:48.828Z,6.25
2022-09-24T19:55:17.729Z,6.68
2022-09-24T19:57:46.113Z,7.60
2022-09-24T20:00:15.644Z,6.82
2022-09-24T20:02:44.109Z,6.68
2022-09-24T20:05:14.021Z,7.38
2022-09-24T20:07:42.584Z,7.50
2022-09-24T20:10:11.660Z,9.57
2022-09-24T20:12:41.701Z,8.63
2022-09-24T20:15:11.457Z,8.43
2022-09-24T20:17:39.842Z,8.02
2022-09-24T20:20:09.657Z,9.48
2022-09-24T20:22:39.494Z,9.35
2022-09-24T20:25:09.386Z,10.75
2022-09-24T20:27:52.063Z,10.80
2022-09-24T20:30:23.937Z,11.25
2022-09-24T20:32:52.589Z,11.43
2022-09-24T20:35:21.388Z,8.75
2022-09-24T20:37:51.293Z,10.13
2022-09-24T20:40:19.949Z,9.02
2022-09-24T20:42:49.327Z,9.15
2022-09-24T20:45:18.098Z,8.38
2022-09-24T20:47:46.719Z,7.88
2022-09-24T20:50:15.369Z,7.43
2022-09-24T20:52:43.835Z,7.88
2022-09-24T20:55:15.313Z,7.72
2022-09-24T20:57:44.637Z,7.35
2022-09-24T21:00:15.239Z,8.73
2022-09-24T21:02:44.586Z,7.88
2022-09-24T21:05:13.207Z,6.43
2022-09-24T21:07:42.815Z,8.35
2022-09-24T21:10:13.701Z,7.38
2022-09-24T21:12:43.045Z,8.18
2022-09-24T21:15:15.532Z,7.78
2022-09-24T21:17:59.470Z,6.85
2022-09-24T21:20:33.205Z,6.28
2022-09-24T21:23:01.667Z,6.20
2022-09-24T21:25:53.235Z,7.63
2022-09-24T21:28:23.047Z,6.95
2022-09-24T21:31:01.188Z,7.80
2022-09-24T21:33:29.709Z,6.30
2022-09-24T21:36:00.637Z,8.48
2022-09-24T21:38:29.128Z,7.82
2022-09-24T21:41:01.440Z,9.02
2022-09-24T21:43:34.626Z,6.32
2022-09-24T21:46:06.769Z,7.13
2022-09-24T21:48:36.150Z,7.38
2022-09-24T21:51:07.186Z,8.20
2022-09-24T21:53:36.220Z,7.43
2022-09-24T21:56:07.485Z,7.40
2022-09-24T21:58:36.996Z,6.85
2022-09-24T22:01:15.565Z,6.47
2022-09-24T22:03:45.330Z,5.13
2022-09-24T22:06:14.152Z,5.53
2022-09-24T22:08:43.213Z,6.50
2022-09-24T22:11:13.785Z,5.53
2022-09-24T22:13:42.673Z,5.93
2022-09-24T22:16:12.928Z,5.88
2022-09-24T22:18:41.762Z,6.45
2022-09-24T22:21:12.986Z,6.63
2022-09-24T22:23:42.678Z,7.90
2022-09-24T22:26:14.682Z,6.18
2022-09-24T22:28:43.933Z,7.05
2022-09-24T22:31:16.662Z,7.32
2022-09-24T22:34:03.456Z,6.53
2022-09-24T22:36:33.684Z,6.82
2022-09-24T22:39:03.610Z,6.30
2022-09-24T22:41:35.801Z,6.35
2022-09-24T22:44:04.475Z,7.38
2022-09-24T22:46:36.195Z,7.43
2022-09-24T22:49:06.459Z,7.47
2022-09-24T22:51:35.388Z,6.57
2022-09-24T22:54:03.964Z,6.30
2022-09-24T22:56:35.420Z,7.43
2022-09-24T22:59:04.270Z,5.10
2022-09-24T23:01:34.791Z,5.90
2022-09-24T23:04:04.047Z,6.10
2022-09-24T23:06:33.972Z,5.60
2022-09-24T23:09:03.085Z,7.70
2022-09-24T23:11:35.571Z,5.53
2022-09-24T23:14:07.247Z,6.30
2022-09-24T23:16:37.628Z,6.15
2022-09-24T23:19:08.968Z,8.07
2022-09-24T23:21:37.363Z,6.63
2022-09-24T23:24:09.948Z,5.35
2022-09-24T23:26:39.802Z,5.60
2022-09-24T23:29:08.948Z,6.22
2022-09-24T23:31:38.627Z,6.05
2022-09-24T23:34:08.639Z,5.13
2022-09-24T23:36:37.806Z,4.60
2022-09-24T23:39:06.846Z,4.85
2022-09-24T23:41:35.299Z,4.75
2022-09-24T23:44:05.387Z,5.15
2022-09-24T23:46:34.262Z,5.05
2022-09-24T23:49:02.978Z,5.32
2022-09-24T23:51:31.388Z,4.90
2022-09-24T23:54:00.056Z,4.65
2022-09-24T23:56:29.090Z,6.38
2022-09-24T23:58:57.755Z,6.60
